Time,TemperatureF,DewpointF,PressureIn,WindDirection,WindDirectionDegrees,WindSpeedMPH,WindSpeedGustMPH,Humidity,HourlyPrecipIn,Conditions,Clouds,dailyrainin,SoftwareType,DateUTC
2013-03-17 00:01:00,13.3,8.8,29.86,East,84,0.0,1.0,82,0.00,,,0.01,Wunderground PWS Mod,2013-03-17 04:01:00,
2013-03-17 00:06:00,13.1,8.6,29.86,East,84,0.0,1.0,82,0.00,,,0.01,Wunderground PWS Mod,2013-03-17 04:06:00,
2013-03-17 00:12:00,12.8,8.6,29.86,East,84,0.0,0.0,83,0.00,,,0.01,Wunderground PWS Mod,2013-03-17 04:12:00,
2013-03-17 00:20:00,11.9,8.3,29.86,N/A,-737280,0.0,0.0,85,0.00,,,0.01,Wunderground PWS Mod,2013-03-17 04:20:00,
2013-03-17 00:21:00,12.6,8.7,29.85,East,84,0.0,0.0,84,0.00,,,0.01,Wunderground PWS Mod,2013-03-17 04:21:00,
2013-03-17 00:31:00,12.3,8.4,29.85,East,84,0.0,0.0,84,0.00,,,0.01,Wunderground PWS Mod,2013-03-17 04:31:00,
2013-03-17 00:41:00,11.7,8.1,29.86,East,84,0.0,0.0,85,0.00,,,0.01,Wunderground PWS Mod,2013-03-17 04:41:00,
2013-03-17 00:46:00,11.6,8.2,29.86,East,84,0.0,0.0,86,0.00,,,0.01,Wunderground PWS Mod,2013-03-17 04:46:00,
2013-03-17 00:55:00,11.1,8.0,29.86,East,90,0.0,1.0,87,0.00,,,0.01,Wunderground PWS Mod,2013-03-17 04:55:00,
2013-03-17 01:01:00,11.2,8.1,29.86,East,84,0.0,0.0,87,0.00,,,0.01,Wunderground PWS Mod,2013-03-17 05:01:00,
2013-03-17 01:12:00,10.9,7.8,29.86,East,84,0.0,1.0,87,0.00,,,0.00,Wunderground PWS Mod,2013-03-17 05:12:00,
2013-03-17 01:20:00,10.0,7.2,29.86,East,90,0.0,1.0,88,0.00,,,0.00,Wunderground PWS Mod,2013-03-17 05:20:00,
2013-03-17 01:21:00,10.7,7.6,29.86,East,84,0.0,1.0,87,0.00,,,0.00,Wunderground PWS Mod,2013-03-17 05:21:00,
2013-03-17 01:26:00,10.5,7.6,29.86,East,84,0.0,1.0,88,0.00,,,0.00,Wunderground PWS Mod,2013-03-17 05:26:00,
2013-03-17 01:31:00,10.4,7.6,29.86,East,84,0.0,1.0,88,0.00,,,0.00,Wunderground PWS Mod,2013-03-17 05:31:00,
2013-03-17 01:42:00,10.0,7.2,29.86,East,84,0.0,1.0,88,0.00,,,0.00,Wunderground PWS Mod,2013-03-17 05:42:00,
2013-03-17 01:51:00,9.7,6.9,29.86,East,84,0.0,1.0,88,0.00,,,0.00,Wunderground PWS Mod,2013-03-17 05:51:00,
2013-03-17 02:01:00,9.5,6.9,29.86,East,84,0.0,1.0,89,0.00,,,0.00,Wunderground PWS Mod,2013-03-17 06:01:00,
2013-03-17 02:06:00,9.5,6.9,29.86,East,84,0.0,1.0,89,0.00,,,0.00,Wunderground PWS Mod,2013-03-17 06:06:00,
2013-03-17 02:12:00,9.3,6.7,29.86,East,84,0.0,1.0,89,0.00,,,0.00,Wunderground PWS Mod,2013-03-17 06:12:00,
2013-03-17 02:15:00,8.6,6.0,29.86,N/A,-737280,0.0,0.0,89,0.00,,,0.00,Wunderground PWS Mod,2013-03-17 06:15:00,
2013-03-17 02:21:00,9.2,6.6,29.86,East,84,0.0,1.0,89,0.00,,,0.00,Wunderground PWS Mod,2013-03-17 06:21:00,
2013-03-17 02:26:00,9.0,6.4,29.86,East,84,0.0,1.0,89,0.00,,,0.00,Wunderground PWS Mod,2013-03-17 06:26:00,
2013-03-17 02:31:00,8.8,6.2,29.86,East,84,0.0,1.0,89,0.00,,,0.00,Wunderground PWS Mod,2013-03-17 06:31:00,
2013-03-17 02:36:00,8.6,6.0,29.86,East,84,0.0,1.0,89,0.00,,,0.00,Wunderground PWS Mod,2013-03-17 06:36:00,
2013-03-17 02:41:00,8.6,6.0,29.86,East,84,0.0,0.0,89,0.00,,,0.00,Wunderground PWS Mod,2013-03-17 06:41:00,
2013-03-17 02:50:00,8.3,5.7,29.88,N/A,-737280,0.0,0.0,89,0.00,,,0.00,Wunderground PWS Mod,2013-03-17 06:50:00,
2013-03-17 02:51:00,8.4,5.8,29.87,East,84,0.0,0.0,89,0.00,,,0.00,Wunderground PWS Mod,2013-03-17 06:51:00,
2013-03-17 03:06:00,8.3,5.7,29.88,East,84,0.0,0.0,89,0.00,,,0.00,Wunderground PWS Mod,2013-03-17 07:06:00,
2013-03-17 03:12:00,8.1,5.5,29.88,East,84,0.0,0.0,89,0.00,,,0.00,Wunderground PWS Mod,2013-03-17 07:12:00,
2013-03-17 03:20:00,7.4,4.8,29.89,N/A,-737280,0.0,0.0,89,0.00,,,0.00,Wunderground PWS Mod,2013-03-17 07:20:00,
2013-03-17 03:21:00,7.7,5.1,29.87,East,84,0.0,0.0,89,0.00,,,0.00,Wunderground PWS Mod,2013-03-17 07:21:00,
2013-03-17 03:27:00,7.6,5.0,29.87,East,84,0.0,0.0,89,0.00,,,0.00,Wunderground PWS Mod,2013-03-17 07:27:00,
2013-03-17 03:36:00,7.4,4.8,29.89,East,84,0.0,0.0,89,0.00,,,0.00,Wunderground PWS Mod,2013-03-17 07:36:00,
2013-03-17 03:40:00,7.4,4.8,29.89,N/A,-737280,0.0,0.0,89,0.00,,,0.00,Wunderground PWS Mod,2013-03-17 07:40:00,
2013-03-17 03:41:00,7.4,4.8,29.89,East,84,0.0,0.0,89,0.00,,,0.00,Wunderground PWS Mod,2013-03-17 07:41:00,
2013-03-17 03:51:00,7.2,4.6,29.90,East,84,0.0,0.0,89,0.00,,,0.00,Wunderground PWS Mod,2013-03-17 07:51:00,
2013-03-17 03:56:00,7.0,4.4,29.90,East,84,0.0,0.0,89,0.00,,,0.00,Wunderground PWS Mod,2013-03-17 07:56:00,
2013-03-17 04:01:00,7.0,4.4,29.90,East,84,0.0,0.0,89,0.00,,,0.00,Wunderground PWS Mod,2013-03-17 08:01:00,
2013-03-17 04:12:00,6.7,4.1,29.90,East,84,0.0,1.0,89,0.00,,,0.00,Wunderground PWS Mod,2013-03-17 08:12:00,
2013-03-17 04:21:00,6.5,3.9,29.90,East,84,0.0,1.0,89,0.00,,,0.00,Wunderground PWS Mod,2013-03-17 08:21:00,
2013-03-17 04:25:00,6.3,3.8,29.90,N/A,-737280,0.0,0.0,89,0.00,,,0.00,Wunderground PWS Mod,2013-03-17 08:25:00,
2013-03-17 04:26:00,6.3,3.8,29.90,East,84,0.0,1.0,89,0.00,,,0.00,Wunderground PWS Mod,2013-03-17 08:26:00,
2013-03-17 04:31:00,6.3,3.8,29.90,East,84,0.0,1.0,89,0.00,,,0.00,Wunderground PWS Mod,2013-03-17 08:31:00,
2013-03-17 04:36:00,6.3,3.8,29.90,East,84,0.0,1.0,89,0.00,,,0.00,Wunderground PWS Mod,2013-03-17 08:36:00,
2013-03-17 04:45:00,5.8,3.0,29.91,East,90,0.0,1.0,88,0.00,,,0.00,Wunderground PWS Mod,2013-03-17 08:45:00,
2013-03-17 04:46:00,6.1,3.3,29.90,East,84,0.0,0.0,88,0.00,,,0.00,Wunderground PWS Mod,2013-03-17 08:46:00,
2013-03-17 04:51:00,6.0,3.2,29.91,East,84,0.0,0.0,88,0.00,,,0.00,Wunderground PWS Mod,2013-03-17 08:51:00,
2013-03-17 05:01:00,5.8,3.0,29.91,East,84,0.0,0.0,88,0.00,,,0.00,Wunderground PWS Mod,2013-03-17 09:01:00,
2013-03-17 05:06:00,5.8,3.0,29.91,East,84,0.0,0.0,88,0.00,,,0.00,Wunderground PWS Mod,2013-03-17 09:06:00,
2013-03-17 05:12:00,5.6,2.8,29.91,East,84,0.0,1.0,88,0.00,,,0.00,Wunderground PWS Mod,2013-03-17 09:12:00,
2013-03-17 05:20:00,5.2,2.2,29.91,East,90,0.0,1.0,87,0.00,,,0.00,Wunderground PWS Mod,2013-03-17 09:20:00,
2013-03-17 05:21:00,5.6,2.8,29.90,East,84,0.0,1.0,88,0.00,,,0.00,Wunderground PWS Mod,2013-03-17 09:21:00,
2013-03-17 05:26:00,5.4,2.6,29.90,East,84,0.0,1.0,88,0.00,,,0.00,Wunderground PWS Mod,2013-03-17 09:26:00,
2013-03-17 05:36:00,5.2,2.2,29.91,East,84,0.0,1.0,87,0.00,,,0.00,Wunderground PWS Mod,2013-03-17 09:36:00,
2013-03-17 05:42:00,5.2,2.2,29.91,East,84,0.0,1.0,87,0.00,,,0.00,Wunderground PWS Mod,2013-03-17 09:42:00,
2013-03-17 05:51:00,5.0,2.0,29.91,East,84,0.0,1.0,87,0.00,,,0.00,Wunderground PWS Mod,2013-03-17 09:51:00,
2013-03-17 05:55:00,4.7,1.7,29.91,N/A,-737280,0.0,0.0,87,0.00,,,0.00,Wunderground PWS Mod,2013-03-17 09:55:00,
2013-03-17 05:56:00,5.0,2.0,29.91,East,84,0.0,1.0,87,0.00,,,0.00,Wunderground PWS Mod,2013-03-17 09:56:00,
2013-03-17 06:01:00,4.8,1.8,29.91,East,84,0.0,1.0,87,0.00,,,0.00,Wunderground PWS Mod,2013-03-17 10:01:00,
2013-03-17 06:12:00,4.7,1.7,29.91,East,84,0.0,0.0,87,0.00,,,0.00,Wunderground PWS Mod,2013-03-17 10:12:00,
2013-03-17 06:20:00,4.3,1.0,29.91,East,90,0.0,1.0,86,0.00,,,0.00,Wunderground PWS Mod,2013-03-17 10:20:00,
2013-03-17 06:21:00,4.5,1.5,29.91,East,84,0.0,0.0,87,0.00,,,0.00,Wunderground PWS Mod,2013-03-17 10:21:00,
2013-03-17 06:31:00,4.5,1.2,29.91,East,84,0.0,0.0,86,0.00,,,0.00,Wunderground PWS Mod,2013-03-17 10:31:00,
2013-03-17 06:36:00,4.3,1.0,29.91,East,84,0.0,0.0,86,0.00,,,0.00,Wunderground PWS Mod,2013-03-17 10:36:00,
2013-03-17 06:42:00,4.3,1.0,29.91,East,84,0.0,1.0,86,0.00,,,0.00,Wunderground PWS Mod,2013-03-17 10:42:00,
2013-03-17 06:51:00,4.1,0.8,29.92,East,84,0.0,1.0,86,0.00,,,0.00,Wunderground PWS Mod,2013-03-17 10:51:00,
2013-03-17 06:57:00,4.1,0.8,29.92,East,84,0.0,1.0,86,0.00,,,0.00,Wunderground PWS Mod,2013-03-17 10:57:00,
2013-03-17 07:00:00,3.9,0.6,29.92,N/A,-737280,0.0,0.0,86,0.00,,,0.00,Wunderground PWS Mod,2013-03-17 11:00:00,
2013-03-17 07:07:00,3.9,0.6,29.92,East,84,0.0,1.0,86,0.00,,,0.00,Wunderground PWS Mod,2013-03-17 11:07:00,
2013-03-17 07:12:00,4.1,0.8,29.92,East,84,0.0,0.0,86,0.00,,,0.00,Wunderground PWS Mod,2013-03-17 11:12:00,
2013-03-17 07:15:00,4.5,1.2,29.93,East,90,0.0,2.0,86,0.00,,,0.00,Wunderground PWS Mod,2013-03-17 11:15:00,
2013-03-17 07:22:00,4.1,0.8,29.93,East,84,0.0,0.0,86,0.00,,,0.00,Wunderground PWS Mod,2013-03-17 11:22:00,
2013-03-17 07:31:00,4.3,1.0,29.93,East,84,0.0,0.0,86,0.00,,,0.00,Wunderground PWS Mod,2013-03-17 11:31:00,
2013-03-17 07:37:00,4.5,1.2,29.93,East,84,0.0,0.0,86,0.00,,,0.00,Wunderground PWS Mod,2013-03-17 11:37:00,
2013-03-17 07:42:00,4.8,1.5,29.93,East,84,0.0,2.0,86,0.00,,,0.00,Wunderground PWS Mod,2013-03-17 11:42:00,
2013-03-17 07:51:00,5.4,2.1,29.93,East,84,0.0,2.0,86,0.00,,,0.00,Wunderground PWS Mod,2013-03-17 11:51:00,
2013-03-17 07:56:00,5.6,2.3,29.93,East,84,0.0,2.0,86,0.00,,,0.00,Wunderground PWS Mod,2013-03-17 11:56:00,
2013-03-17 08:00:00,6.3,3.0,29.95,East,90,0.0,3.0,86,0.00,,,0.00,Wunderground PWS Mod,2013-03-17 12:00:00,
2013-03-17 08:06:00,6.3,3.0,29.95,NE,34,1.0,2.0,86,0.00,,,0.00,Wunderground PWS Mod,2013-03-17 12:06:00,
2013-03-17 08:12:00,6.3,2.8,29.95,ENE,59,1.0,3.0,85,0.00,,,0.00,Wunderground PWS Mod,2013-03-17 12:12:00,
2013-03-17 08:21:00,7.0,3.7,29.96,NE,47,1.0,3.0,86,0.00,,,0.00,Wunderground PWS Mod,2013-03-17 12:21:00,
2013-03-17 08:25:00,7.9,4.8,29.97,ENE,68,1.0,3.0,87,0.00,,,0.00,Wunderground PWS Mod,2013-03-17 12:25:00,
2013-03-17 08:31:00,7.6,4.3,29.96,ENE,74,1.0,3.0,86,0.00,,,0.00,Wunderground PWS Mod,2013-03-17 12:31:00,
2013-03-17 08:42:00,8.3,5.2,29.97,ENE,60,0.0,3.0,87,0.00,,,0.00,Wunderground PWS Mod,2013-03-17 12:42:00,
2013-03-17 08:50:00,10.4,7.8,29.97,NE,45,0.0,3.0,89,0.00,,,0.00,Wunderground PWS Mod,2013-03-17 12:50:00,
2013-03-17 08:51:00,9.2,6.4,29.97,NE,37,1.0,3.0,88,0.00,,,0.00,Wunderground PWS Mod,2013-03-17 12:51:00,
2013-03-17 08:56:00,9.5,6.7,29.97,NE,37,0.0,3.0,88,0.00,,,0.00,Wunderground PWS Mod,2013-03-17 12:56:00,
2013-03-17 09:01:00,9.9,7.1,29.97,NE,37,0.0,3.0,88,0.00,,,0.00,Wunderground PWS Mod,2013-03-17 13:01:00,
2013-03-17 09:12:00,11.2,8.6,29.97,ENE,60,1.0,3.0,89,0.00,,,0.00,Wunderground PWS Mod,2013-03-17 13:12:00,
2013-03-17 09:15:00,14.4,11.2,29.98,ENE,68,0.0,3.0,87,0.00,,,0.00,Wunderground PWS Mod,2013-03-17 13:15:00,
2013-03-17 09:21:00,12.4,9.8,29.97,ENE,60,1.0,3.0,89,0.00,,,0.00,Wunderground PWS Mod,2013-03-17 13:21:00,
2013-03-17 09:26:00,13.1,10.5,29.97,ENE,60,0.0,3.0,89,0.00,,,0.00,Wunderground PWS Mod,2013-03-17 13:26:00,
2013-03-17 09:36:00,14.4,11.2,29.98,ENE,60,0.0,3.0,87,0.00,,,0.00,Wunderground PWS Mod,2013-03-17 13:36:00,
2013-03-17 09:42:00,14.8,11.4,29.98,NE,36,1.0,3.0,86,0.00,,,0.00,Wunderground PWS Mod,2013-03-17 13:42:00,
2013-03-17 09:50:00,16.4,11.9,29.99,East,90,0.0,4.0,82,0.00,,,0.00,Wunderground PWS Mod,2013-03-17 13:50:00,
2013-03-17 09:51:00,15.6,11.6,29.98,NE,36,0.0,3.0,84,0.00,,,0.00,Wunderground PWS Mod,2013-03-17 13:51:00,
2013-03-17 09:56:00,15.6,11.4,29.98,East,90,0.0,3.0,83,0.00,,,0.00,Wunderground PWS Mod,2013-03-17 13:56:00,
2013-03-17 10:06:00,16.4,11.9,29.98,West,271,1.0,3.0,82,0.00,,,0.00,Wunderground PWS Mod,2013-03-17 14:06:00,
2013-03-17 10:12:00,16.7,11.6,29.98,SW,225,1.0,4.0,80,0.00,,,0.00,Wunderground PWS Mod,2013-03-17 14:12:00,
2013-03-17 10:15:00,17.8,9.3,30.00,WSW,248,3.0,17.0,69,0.00,,,0.00,Wunderground PWS Mod,2013-03-17 14:15:00,
2013-03-17 10:21:00,17.5,10.3,30.00,NW,323,3.0,4.0,73,0.00,,,0.00,Wunderground PWS Mod,2013-03-17 14:21:00,
2013-03-17 10:31:00,17.5,9.7,30.00,West,273,4.0,6.0,71,0.00,,,0.00,Wunderground PWS Mod,2013-03-17 14:31:00,
2013-03-17 10:36:00,17.8,9.3,30.00,West,271,5.0,11.0,69,0.00,,,0.00,Wunderground PWS Mod,2013-03-17 14:36:00,
2013-03-17 10:42:00,17.8,8.7,30.00,WNW,286,5.0,17.0,67,0.00,,,0.00,Wunderground PWS Mod,2013-03-17 14:42:00,
2013-03-17 10:45:00,19.4,8.8,30.01,SW,225,4.0,20.0,63,0.00,,,0.00,Wunderground PWS Mod,2013-03-17 14:45:00,
2013-03-17 10:51:00,18.6,8.4,30.00,NW,315,4.0,17.0,64,0.00,,,0.00,Wunderground PWS Mod,2013-03-17 14:51:00,
2013-03-17 11:01:00,19.1,7.8,30.00,South,173,4.0,17.0,61,0.00,,,0.00,Wunderground PWS Mod,2013-03-17 15:01:00,
2013-03-17 11:12:00,19.9,8.2,30.01,WSW,240,3.0,20.0,60,0.00,,,0.00,Wunderground PWS Mod,2013-03-17 15:12:00,
2013-03-17 11:15:00,19.4,7.8,30.03,SSW,203,4.0,14.0,60,0.00,,,0.00,Wunderground PWS Mod,2013-03-17 15:15:00,
2013-03-17 11:21:00,20.0,7.6,30.02,SW,223,5.0,20.0,58,0.00,,,0.00,Wunderground PWS Mod,2013-03-17 15:21:00,
2013-03-17 11:26:00,19.7,7.3,30.02,WSW,249,4.0,20.0,58,0.00,,,0.00,Wunderground PWS Mod,2013-03-17 15:26:00,
2013-03-17 11:31:00,19.4,7.4,30.02,NW,319,4.0,20.0,59,0.00,,,0.00,Wunderground PWS Mod,2013-03-17 15:31:00,
2013-03-17 11:40:00,19.4,7.8,30.03,SSW,203,4.0,14.0,60,0.00,,,0.00,Wunderground PWS Mod,2013-03-17 15:40:00,
2013-03-17 11:41:00,18.9,8.4,30.03,North,355,4.0,14.0,63,0.00,,,0.00,Wunderground PWS Mod,2013-03-17 15:41:00,
2013-03-17 11:46:00,18.9,9.4,30.03,North,10,4.0,14.0,66,0.00,,,0.00,Wunderground PWS Mod,2013-03-17 15:46:00,
2013-03-17 11:56:00,18.8,7.9,30.04,ESE,114,4.0,14.0,62,0.00,,,0.00,Wunderground PWS Mod,2013-03-17 15:56:00,
2013-03-17 12:01:00,19.2,7.9,30.04,North,355,3.0,14.0,61,0.00,,,0.00,Wunderground PWS Mod,2013-03-17 16:01:00,
2013-03-17 12:06:00,19.4,7.4,30.05,NE,40,2.0,14.0,59,0.00,,,0.00,Wunderground PWS Mod,2013-03-17 16:06:00,
2013-03-17 12:12:00,18.9,7.3,30.05,North,355,4.0,16.0,60,0.00,,,0.00,Wunderground PWS Mod,2013-03-17 16:12:00,
2013-03-17 12:15:00,19.4,6.6,30.06,North,0,3.0,14.0,57,0.00,,,0.00,Wunderground PWS Mod,2013-03-17 16:15:00,
2013-03-17 12:21:00,18.8,7.9,30.05,NNE,24,3.0,16.0,62,0.00,,,0.00,Wunderground PWS Mod,2013-03-17 16:21:00,
2013-03-17 12:36:00,19.4,6.6,30.06,WNW,303,2.0,16.0,57,0.00,,,0.00,Wunderground PWS Mod,2013-03-17 16:36:00,
2013-03-17 12:42:00,19.7,6.5,30.06,West,268,4.0,14.0,56,0.00,,,0.00,Wunderground PWS Mod,2013-03-17 16:42:00,
2013-03-17 12:45:00,20.3,6.7,30.07,WSW,248,3.0,13.0,55,0.00,,,0.00,Wunderground PWS Mod,2013-03-17 16:45:00,
2013-03-17 12:51:00,19.7,6.9,30.06,North,360,3.0,14.0,57,0.00,,,0.00,Wunderground PWS Mod,2013-03-17 16:51:00,
2013-03-17 12:56:00,19.9,6.3,30.06,SW,221,3.0,14.0,55,0.00,,,0.00,Wunderground PWS Mod,2013-03-17 16:56:00,
2013-03-17 13:01:00,20.2,7.4,30.06,NNE,16,3.0,14.0,57,0.00,,,0.00,Wunderground PWS Mod,2013-03-17 17:01:00,
2013-03-17 13:06:00,20.3,6.7,30.07,WNW,288,3.0,14.0,55,0.00,,,0.00,Wunderground PWS Mod,2013-03-17 17:06:00,
2013-03-17 13:12:00,20.5,3.0,30.07,WNW,302,4.0,13.0,46,0.00,,,0.00,Wunderground PWS Mod,2013-03-17 17:12:00,
2013-03-17 13:20:00,19.7,3.2,30.08,West,270,6.0,21.0,48,0.00,,,0.00,Wunderground PWS Mod,2013-03-17 17:20:00,
2013-03-17 13:21:00,20.8,5.1,30.07,SW,221,5.0,13.0,50,0.00,,,0.00,Wunderground PWS Mod,2013-03-17 17:21:00,
2013-03-17 13:26:00,20.5,5.2,30.07,NNW,337,6.0,13.0,51,0.00,,,0.00,Wunderground PWS Mod,2013-03-17 17:26:00,
2013-03-17 13:31:00,20.0,4.7,30.07,North,355,7.0,13.0,51,0.00,,,0.00,Wunderground PWS Mod,2013-03-17 17:31:00,
2013-03-17 13:36:00,19.7,3.2,30.07,West,267,9.0,13.0,48,0.00,,,0.00,Wunderground PWS Mod,2013-03-17 17:36:00,
2013-03-17 13:41:00,19.9,3.8,30.07,NW,325,8.0,21.0,49,0.00,,,0.00,Wunderground PWS Mod,2013-03-17 17:41:00,
2013-03-17 13:45:00,21.4,2.8,30.08,SSW,203,6.0,23.0,44,0.00,,,0.00,Wunderground PWS Mod,2013-03-17 17:45:00,
2013-03-17 13:51:00,20.3,2.3,30.08,SSW,200,8.0,21.0,45,0.00,,,0.00,Wunderground PWS Mod,2013-03-17 17:51:00,
2013-03-17 14:01:00,21.4,2.3,30.08,West,264,4.0,21.0,43,0.00,,,0.00,Wunderground PWS Mod,2013-03-17 18:01:00,
2013-03-17 14:06:00,21.4,2.8,30.08,NNE,30,5.0,21.0,44,0.00,,,0.00,Wunderground PWS Mod,2013-03-17 18:06:00,
2013-03-17 14:12:00,21.3,4.2,30.08,WNW,285,4.0,23.0,47,0.00,,,0.00,Wunderground PWS Mod,2013-03-17 18:12:00,
2013-03-17 14:15:00,21.3,0.1,30.08,West,270,4.0,19.0,39,0.00,,,0.00,Wunderground PWS Mod,2013-03-17 18:15:00,
2013-03-17 14:21:00,20.2,0.2,30.08,ESE,107,4.0,23.0,41,0.00,,,0.00,Wunderground PWS Mod,2013-03-17 18:21:00,
2013-03-17 14:26:00,20.6,1.6,30.08,North,355,4.0,23.0,43,0.00,,,0.00,Wunderground PWS Mod,2013-03-17 18:26:00,
2013-03-17 14:36:00,21.3,0.1,30.08,WSW,245,5.0,23.0,39,0.00,,,0.00,Wunderground PWS Mod,2013-03-17 18:36:00,
2013-03-17 14:40:00,21.3,0.1,30.08,West,270,4.0,19.0,39,0.00,,,0.00,Wunderground PWS Mod,2013-03-17 18:40:00,
2013-03-17 14:41:00,21.4,-0.3,30.08,WSW,238,5.0,19.0,38,0.00,,,0.00,Wunderground PWS Mod,2013-03-17 18:41:00,
2013-03-17 14:47:00,21.3,0.7,30.08,SSW,201,5.0,19.0,40,0.00,,,0.00,Wunderground PWS Mod,2013-03-17 18:47:00,
2013-03-17 14:56:00,21.9,1.2,30.09,WNW,285,5.0,19.0,40,0.00,,,0.00,Wunderground PWS Mod,2013-03-17 18:56:00,
2013-03-17 15:01:00,21.4,1.3,30.09,West,279,4.0,19.0,41,0.00,,,0.00,Wunderground PWS Mod,2013-03-17 19:01:00,
2013-03-17 15:06:00,20.6,1.1,30.09,WSW,242,5.0,19.0,42,0.00,,,0.00,Wunderground PWS Mod,2013-03-17 19:06:00,
2013-03-17 15:12:00,20.8,2.3,30.09,NNE,22,3.0,20.0,44,0.00,,,0.00,Wunderground PWS Mod,2013-03-17 19:12:00,
2013-03-17 15:15:00,21.0,-0.1,30.10,WSW,248,4.0,16.0,39,0.00,,,0.00,Wunderground PWS Mod,2013-03-17 19:15:00,
2013-03-17 15:21:00,20.2,-1.4,30.09,WSW,244,6.0,20.0,38,0.00,,,0.00,Wunderground PWS Mod,2013-03-17 19:21:00,
2013-03-17 15:27:00,20.2,-1.4,30.09,West,267,4.0,20.0,38,0.00,,,0.00,Wunderground PWS Mod,2013-03-17 19:27:00,
2013-03-17 15:36:00,21.0,-0.1,30.10,WSW,251,3.0,20.0,39,0.00,,,0.00,Wunderground PWS Mod,2013-03-17 19:36:00,
2013-03-17 15:40:00,21.0,-0.1,30.10,WSW,248,4.0,16.0,39,0.00,,,0.00,Wunderground PWS Mod,2013-03-17 19:40:00,
2013-03-17 15:41:00,21.1,0.0,30.10,WSW,239,6.0,16.0,39,0.00,,,0.00,Wunderground PWS Mod,2013-03-17 19:41:00,
2013-03-17 15:46:00,21.8,0.0,30.10,WSW,242,5.0,16.0,38,0.00,,,0.00,Wunderground PWS Mod,2013-03-17 19:46:00,
2013-03-17 15:56:00,22.1,-1.4,30.10,WSW,255,5.0,16.0,35,0.00,,,0.00,Wunderground PWS Mod,2013-03-17 19:56:00,
2013-03-17 16:01:00,22.1,-1.4,30.10,West,261,5.0,16.0,35,0.00,,,0.00,Wunderground PWS Mod,2013-03-17 20:01:00,
2013-03-17 16:06:00,21.9,-4.2,30.10,West,260,6.0,16.0,31,0.00,,,0.00,Wunderground PWS Mod,2013-03-17 20:06:00,
2013-03-17 16:12:00,22.1,-4.7,30.10,SW,218,6.0,19.0,30,0.00,,,0.00,Wunderground PWS Mod,2013-03-17 20:12:00,
2013-03-17 16:15:00,21.3,-4.7,30.11,SSW,203,5.0,19.0,31,0.00,,,0.00,Wunderground PWS Mod,2013-03-17 20:15:00,
2013-03-17 16:21:00,21.8,-2.9,30.10,SSW,209,5.0,19.0,33,0.00,,,0.00,Wunderground PWS Mod,2013-03-17 20:21:00,
2013-03-17 16:26:00,21.6,-3.8,30.10,South,177,5.0,19.0,32,0.00,,,0.00,Wunderground PWS Mod,2013-03-17 20:26:00,
2013-03-17 16:31:00,21.8,-4.9,30.10,SSW,204,4.0,19.0,30,0.00,,,0.00,Wunderground PWS Mod,2013-03-17 20:31:00,
2013-03-17 16:41:00,21.3,-5.4,30.11,SSW,211,6.0,19.0,30,0.00,,,0.00,Wunderground PWS Mod,2013-03-17 20:41:00,
2013-03-17 16:45:00,22.1,-4.0,30.12,West,270,5.0,18.0,31,0.00,,,0.00,Wunderground PWS Mod,2013-03-17 20:45:00,
2013-03-17 16:46:00,21.4,-4.6,30.11,WSW,245,6.0,19.0,31,0.00,,,0.00,Wunderground PWS Mod,2013-03-17 20:46:00,
2013-03-17 16:51:00,21.8,-3.6,30.11,NNW,327,5.0,19.0,32,0.00,,,0.00,Wunderground PWS Mod,2013-03-17 20:51:00,
2013-03-17 17:06:00,22.1,-4.0,30.12,West,273,4.0,19.0,31,0.00,,,0.00,Wunderground PWS Mod,2013-03-17 21:06:00,
2013-03-17 17:12:00,21.8,-6.4,30.12,SE,139,6.0,18.0,28,0.00,,,0.00,Wunderground PWS Mod,2013-03-17 21:12:00,
2013-03-17 17:15:00,21.1,-4.9,30.14,West,270,5.0,20.0,31,0.00,,,0.00,Wunderground PWS Mod,2013-03-17 21:15:00,
2013-03-17 17:22:00,21.4,-6.7,30.14,West,269,7.0,18.0,28,0.00,,,0.00,Wunderground PWS Mod,2013-03-17 21:22:00,
2013-03-17 17:37:00,21.1,-5.6,30.14,West,281,3.0,18.0,30,0.00,,,0.00,Wunderground PWS Mod,2013-03-17 21:37:00,
2013-03-17 17:45:00,20.6,-4.0,30.14,West,270,3.0,15.0,33,0.00,,,0.00,Wunderground PWS Mod,2013-03-17 21:45:00,
2013-03-17 17:52:00,20.8,-5.8,30.14,West,270,4.0,20.0,30,0.00,,,0.00,Wunderground PWS Mod,2013-03-17 21:52:00,
2013-03-17 18:01:00,20.6,-4.0,30.14,West,261,3.0,20.0,33,0.00,,,0.00,Wunderground PWS Mod,2013-03-17 22:01:00,
2013-03-17 18:06:00,20.6,-4.0,30.14,NNE,17,2.0,20.0,33,0.00,,,0.00,Wunderground PWS Mod,2013-03-17 22:06:00,
2013-03-17 18:12:00,20.5,-4.7,30.14,West,281,1.0,15.0,32,0.00,,,0.00,Wunderground PWS Mod,2013-03-17 22:12:00,
2013-03-17 18:20:00,19.7,-3.0,30.16,WSW,248,2.0,10.0,36,0.00,,,0.00,Wunderground PWS Mod,2013-03-17 22:20:00,
2013-03-17 18:21:00,20.3,-3.7,30.15,WSW,252,2.0,15.0,34,0.00,,,0.00,Wunderground PWS Mod,2013-03-17 22:21:00,
2013-03-17 18:26:00,20.2,-3.7,30.15,West,273,2.0,15.0,34,0.00,,,0.00,Wunderground PWS Mod,2013-03-17 22:26:00,
2013-03-17 18:31:00,20.0,-3.3,30.15,SSE,163,3.0,15.0,35,0.00,,,0.00,Wunderground PWS Mod,2013-03-17 22:31:00,
2013-03-17 18:37:00,19.7,-3.0,30.16,WSW,246,2.0,15.0,36,0.00,,,0.00,Wunderground PWS Mod,2013-03-17 22:37:00,
2013-03-17 18:40:00,19.7,-3.0,30.16,WSW,248,2.0,10.0,36,0.00,,,0.00,Wunderground PWS Mod,2013-03-17 22:40:00,
2013-03-17 18:46:00,19.1,-3.5,30.16,WSW,258,1.0,10.0,36,0.00,,,0.00,Wunderground PWS Mod,2013-03-17 22:46:00,
2013-03-17 18:51:00,18.9,-3.1,30.17,West,274,1.0,10.0,37,0.00,,,0.00,Wunderground PWS Mod,2013-03-17 22:51:00,
2013-03-17 19:01:00,18.6,-2.8,30.17,NW,313,1.0,10.0,38,0.00,,,0.00,Wunderground PWS Mod,2013-03-17 23:01:00,
2013-03-17 19:06:00,18.3,-2.6,30.18,NNW,329,0.0,10.0,39,0.00,,,0.00,Wunderground PWS Mod,2013-03-17 23:06:00,
2013-03-17 19:12:00,18.1,-1.7,30.18,NW,321,0.0,9.0,41,0.00,,,0.00,Wunderground PWS Mod,2013-03-17 23:12:00,
2013-03-17 19:15:00,17.3,-1.9,30.21,NNE,23,0.0,4.0,42,0.00,,,0.00,Wunderground PWS Mod,2013-03-17 23:15:00,
2013-03-17 19:22:00,17.8,-2.5,30.19,North,351,0.0,9.0,40,0.00,,,0.00,Wunderground PWS Mod,2013-03-17 23:22:00,
2013-03-17 19:32:00,17.5,-2.2,30.19,North,5,0.0,9.0,41,0.00,,,0.00,Wunderground PWS Mod,2013-03-17 23:32:00,
2013-03-17 19:41:00,17.0,-1.7,30.21,North,5,0.0,4.0,43,0.00,,,0.00,Wunderground PWS Mod,2013-03-17 23:41:00,
2013-03-17 19:45:00,16.1,-0.6,30.22,North,0,0.0,2.0,47,0.00,,,0.00,Wunderground PWS Mod,2013-03-17 23:45:00,
2013-03-17 19:52:00,16.7,-1.5,30.22,North,5,0.0,4.0,44,0.00,,,0.00,Wunderground PWS Mod,2013-03-17 23:52:00,
2013-03-17 20:01:00,16.4,-1.3,30.22,North,5,0.0,4.0,45,0.00,,,0.00,Wunderground PWS Mod,2013-03-18 00:01:00,
2013-03-17 20:06:00,16.1,-0.6,30.22,North,5,0.0,4.0,47,0.00,,,0.00,Wunderground PWS Mod,2013-03-18 00:06:00,
2013-03-17 20:12:00,15.7,-1.0,30.22,North,5,0.0,2.0,47,0.00,,,0.00,Wunderground PWS Mod,2013-03-18 00:12:00,
2013-03-17 20:21:00,15.6,1.1,30.23,North,5,0.0,2.0,52,0.00,,,0.00,Wunderground PWS Mod,2013-03-18 00:21:00,
2013-03-17 20:25:00,14.4,1.2,30.24,North,0,0.0,1.0,55,0.00,,,0.00,Wunderground PWS Mod,2013-03-18 00:25:00,
2013-03-17 20:26:00,15.2,0.3,30.23,North,5,0.0,2.0,51,0.00,,,0.00,Wunderground PWS Mod,2013-03-18 00:26:00,
2013-03-17 20:31:00,14.9,1.2,30.23,North,5,0.0,2.0,54,0.00,,,0.00,Wunderground PWS Mod,2013-03-18 00:31:00,
2013-03-17 20:36:00,14.4,1.2,30.24,North,5,0.0,2.0,55,0.00,,,0.00,Wunderground PWS Mod,2013-03-18 00:36:00,
2013-03-17 20:42:00,14.0,1.2,30.24,North,5,0.0,1.0,56,0.00,,,0.00,Wunderground PWS Mod,2013-03-18 00:42:00,
2013-03-17 20:50:00,12.9,1.6,30.25,North,0,0.0,2.0,60,0.00,,,0.00,Wunderground PWS Mod,2013-03-18 00:50:00,
2013-03-17 20:56:00,13.3,2.0,30.25,North,5,0.0,1.0,60,0.00,,,0.00,Wunderground PWS Mod,2013-03-18 00:56:00,
2013-03-17 21:01:00,12.9,1.2,30.25,North,5,0.0,1.0,59,0.00,,,0.00,Wunderground PWS Mod,2013-03-18 01:01:00,
2013-03-17 21:07:00,12.9,1.6,30.25,North,5,0.0,1.0,60,0.00,,,0.00,Wunderground PWS Mod,2013-03-18 01:07:00,
2013-03-17 21:12:00,12.8,0.8,30.25,North,5,0.0,2.0,58,0.00,,,0.00,Wunderground PWS Mod,2013-03-18 01:12:00,
2013-03-17 21:15:00,13.8,0.6,30.26,West,270,0.0,3.0,55,0.00,,,0.00,Wunderground PWS Mod,2013-03-18 01:15:00,
2013-03-17 21:21:00,13.6,0.4,30.26,West,274,0.0,2.0,55,0.00,,,0.00,Wunderground PWS Mod,2013-03-18 01:21:00,
2013-03-17 21:31:00,13.8,-0.6,30.26,West,274,0.0,2.0,52,0.00,,,0.00,Wunderground PWS Mod,2013-03-18 01:31:00,
2013-03-17 21:40:00,13.8,0.6,30.26,West,270,0.0,3.0,55,0.00,,,0.00,Wunderground PWS Mod,2013-03-18 01:40:00,
2013-03-17 21:41:00,13.6,0.0,30.26,West,274,0.0,3.0,54,0.00,,,0.00,Wunderground PWS Mod,2013-03-18 01:41:00,
2013-03-17 21:47:00,13.1,2.5,30.26,West,274,0.0,3.0,62,0.00,,,0.00,Wunderground PWS Mod,2013-03-18 01:47:00,
2013-03-17 21:52:00,12.6,2.0,30.26,West,274,0.0,3.0,62,0.00,,,0.00,Wunderground PWS Mod,2013-03-18 01:52:00,
2013-03-17 22:01:00,11.9,0.3,30.26,West,274,0.0,3.0,59,0.00,,,0.00,Wunderground PWS Mod,2013-03-18 02:01:00,
2013-03-17 22:06:00,11.7,1.2,30.26,West,274,0.0,3.0,62,0.00,,,0.00,Wunderground PWS Mod,2013-03-18 02:06:00,
2013-03-17 22:12:00,11.6,1.8,30.26,West,274,0.0,0.0,64,0.00,,,0.00,Wunderground PWS Mod,2013-03-18 02:12:00,
2013-03-17 22:22:00,11.7,-0.3,30.26,West,274,0.0,0.0,58,0.00,,,0.00,Wunderground PWS Mod,2013-03-18 02:22:00,
2013-03-17 22:25:00,12.1,1.2,30.27,SSW,203,0.0,2.0,61,0.00,,,0.00,Wunderground PWS Mod,2013-03-18 02:25:00,
2013-03-17 22:31:00,12.8,-0.3,30.26,SSW,212,0.0,2.0,55,0.00,,,0.00,Wunderground PWS Mod,2013-03-18 02:31:00,
2013-03-17 22:36:00,12.1,1.2,30.27,SSW,212,0.0,0.0,61,0.00,,,0.00,Wunderground PWS Mod,2013-03-18 02:36:00,
2013-03-17 22:42:00,11.2,0.7,30.27,SSW,212,0.0,2.0,62,0.00,,,0.00,Wunderground PWS Mod,2013-03-18 02:42:00,
2013-03-17 22:45:00,9.9,1.1,30.28,SSW,203,0.0,1.0,67,0.00,,,0.00,Wunderground PWS Mod,2013-03-18 02:45:00,
2013-03-17 23:01:00,10.0,1.2,30.28,SSW,212,0.0,2.0,67,0.00,,,0.00,Wunderground PWS Mod,2013-03-18 03:01:00,
2013-03-17 23:06:00,9.9,1.1,30.28,SSW,212,0.0,2.0,67,0.00,,,0.00,Wunderground PWS Mod,2013-03-18 03:06:00,
2013-03-17 23:12:00,9.5,1.1,30.28,SSW,212,0.0,1.0,68,0.00,,,0.00,Wunderground PWS Mod,2013-03-18 03:12:00,
2013-03-17 23:15:00,8.3,0.5,30.29,SSW,203,0.0,1.0,70,0.00,,,0.00,Wunderground PWS Mod,2013-03-18 03:15:00,
2013-03-17 23:22:00,9.0,0.9,30.28,SSW,212,0.0,1.0,69,0.00,,,0.00,Wunderground PWS Mod,2013-03-18 03:22:00,
2013-03-17 23:27:00,8.8,0.7,30.28,SSW,212,0.0,1.0,69,0.00,,,0.00,Wunderground PWS Mod,2013-03-18 03:27:00,
2013-03-17 23:36:00,8.3,0.5,30.29,SSW,212,0.0,1.0,70,0.00,,,0.00,Wunderground PWS Mod,2013-03-18 03:36:00,
2013-03-17 23:42:00,8.1,0.3,30.29,SSW,212,0.0,1.0,70,0.00,,,0.00,Wunderground PWS Mod,2013-03-18 03:42:00,
2013-03-17 23:45:00,7.6,0.5,30.29,ENE,68,1.0,6.0,72,0.00,,,0.00,Wunderground PWS Mod,2013-03-18 03:45:00,
2013-03-17 23:51:00,7.7,0.2,30.29,ENE,69,0.0,1.0,71,0.00,,,0.00,Wunderground PWS Mod,2013-03-18 03:51:00,
2013-03-17 23:56:00,7.7,0.5,30.29,ENE,76,1.0,1.0,72,0.00,,,0.00,Wunderground PWS Mod,2013-03-18 03:56:00,